Nathaniel B. Palmer — WBP3210 — position and weather

sailwx.info

Track history (hours):
 
Tides and Currents Weather Stations Pressure Air Temp Water Temp Dewpoint Dewpoint Depression Visibility Wind Speed Wind Dir Waves Ship Positions

Oceanographic research ship Nathaniel B. Palmer (USA)

Contact: Ethan Norris, ethan.norris.contractor@usap.gov

Detailed information on ship capabilities available from University of Delaware's Ocean Information Center and ARCUS's ALIAS (Arctic Logistics Information and Support) project.

Owner: OFFSHORE SERVICE VESSELS, GALLIANO, LA. More information available from US FCC via Universal Licensing System and Coast Guard Vessel Documentation Center.

Last reported at 2016-Dec-08 05:00 UTC. Time now 2016-Dec-08 06:02 UTC.
Position S 50°06' W 089°36'.

Type: Other ship. MMSI: 366610000.

Wind from 290 at 27 knots

Barometer 1012.3 mb
Air temperature 9.4 ° C
Water temperature 8.9 ° C

Date/timePositionNaut miles runAvg speedWind from/ knotsBaromVisibWave heightAir tempDewpointWater temp
2016-Dec-08 05:00S 50°06' W 089°36'0 0.0 290 / 271012.3 9.4 8.9
2016-Dec-08 04:00S 50°06' W 089°36'0 0.0 290 / 281011.9 9.4 8.9
2016-Dec-08 03:00S 50°06' W 089°36'7 7.1 290 / 261011.3 9.4 8.9
2016-Dec-08 02:00S 50°12' W 089°30'0 0.0 290 / 241010.7 9.5 8.9
2016-Dec-08 01:00S 50°12' W 089°30'7 7.1 300 / 211011.2 9.5 8.9
2016-Dec-08 00:00S 50°06' W 089°36'4 3.8 300 / 211011.3 9.6 8.9
2016-Dec-07 23:00S 50°06' W 089°42'0 0.0 300 / 211011.2 9.7 8.9
2016-Dec-07 22:00S 50°06' W 089°42'6 6.0 290 / 221010.1 9.6 8.9
2016-Dec-07 21:00S 50°12' W 089°42'6 6.0 300 / 221009.7 9.7 8.9
2016-Dec-07 20:00S 50°18' W 089°42'6 6.0 300 / 231009.0 9.6 8.8
2016-Dec-07 19:00S 50°24' W 089°42'6 6.0 320 / 291008.2 9.8 8.8
2016-Dec-07 18:00S 50°30' W 089°42'6 6.0 330 / 311008.2 9.8 8.6
2016-Dec-07 17:00S 50°36' W 089°42'6 6.0 340 / 331008.5 9.6 8.6
2016-Dec-07 16:00S 50°42' W 089°42'1212.0 350 / 341009.0 9.3 8.6
2016-Dec-07 15:00S 50°54' W 089°42'6 6.0 360 / 351009.8 9.0 8.5
2016-Dec-07 14:00S 51°00' W 089°42'6 6.0 360 / 351010.5 8.5 8.4
2016-Dec-07 13:00S 51°06' W 089°42'1312.6 1010.9 8.3 8.0
2016-Dec-07 12:00S 51°18' W 089°36'6 6.0 360 / 351011.8 8.3 7.9
2016-Dec-07 11:00S 51°24' W 089°36'6 6.0 360 / 331012.5 8.3 7.9
2016-Dec-07 10:00S 51°30' W 089°36'1212.0 360 / 311013.1 8.2 7.9
2016-Dec-07 09:00S 51°42' W 089°36'6 6.0 350 / 301014.0 8.3 7.8
2016-Dec-07 08:00S 51°48' W 089°36'1212.0 350 / 301014.8 8.2 7.9
2016-Dec-07 07:00S 52°00' W 089°36'1212.0 350 / 311015.4 8.1 7.9
2016-Dec-07 06:00S 52°12' W 089°36'6 6.0 350 / 301016.2 8.1 7.9
2016-Dec-07 05:00S 52°18' W 089°36'1212.0 350 / 281016.7 8.0 7.9
2016-Dec-07 04:00S 52°30' W 089°36'6 6.0 350 / 241017.4 8.0 7.9
2016-Dec-07 03:00S 52°36' W 089°36'1212.0 340 / 221017.6 8.0 7.8
2016-Dec-07 02:00S 52°48' W 089°36'1212.0 340 / 191018.0 8.0 7.8
2016-Dec-07 01:00S 53°00' W 089°36'6 6.0 340 / 171018.3 8.1 7.9
2016-Dec-07 00:00S 53°06' W 089°36'1212.0 340 / 151018.4 8.1 7.8
2016-Dec-06 23:00S 53°18' W 089°36'6 6.0 340 / 131019.1 7.9 7.6
2016-Dec-06 22:00S 53°24' W 089°36'1212.0 320 / 131019.4 7.6 7.5
2016-Dec-06 21:00S 53°36' W 089°36'1212.0 310 / 161019.3 7.5 7.5
2016-Dec-06 20:00S 53°48' W 089°36'6 6.0 300 / 141019.3 7.5 7.5
2016-Dec-06 19:00S 53°54' W 089°36'1212.0 300 / 161018.8 7.4 7.5
2016-Dec-06 18:00S 54°06' W 089°36'0 0.0 290 / 121019.1 7.5 7.6
2016-Dec-06 17:00S 54°06' W 089°36'4 3.5 290 / 121019.2 7.3 7.4
2016-Dec-06 16:00S 54°06' W 089°30'0 0.0 270 / 121019.1 7.3 7.4
2016-Dec-06 15:00S 54°06' W 089°30'0 0.0 270 / 131018.9 7.4 7.3
2016-Dec-06 14:00S 54°06' W 089°30'0 0.0 270 / 151018.7 7.3 7.3
2016-Dec-06 13:00S 54°06' W 089°30'0 0.0 260 / 131018.4 7.3 7.4
2016-Dec-06 12:00S 54°06' W 089°30'0 0.0 280 / 141018.1 7.7 7.3
2016-Dec-06 11:00S 54°06' W 089°30'0 0.0 270 / 121017.7 7.4 7.4
2016-Dec-06 10:00S 54°06' W 089°30'0 0.0 280 / 121017.4 7.3 7.4
2016-Dec-06 09:00S 54°06' W 089°30'0 0.0 280 / 121017.0 7.7 7.4
2016-Dec-06 08:00S 54°06' W 089°30'0 0.0 290 / 101016.6 8.4 7.5
2016-Dec-06 07:00S 54°06' W 089°30'0 0.0 280 / 111016.3 7.5 7.5
2016-Dec-06 06:00S 54°06' W 089°30'4 3.5 300 / 121016.1 7.4 7.6
2016-Dec-06 05:00S 54°06' W 089°24'4 3.5 340 / 81015.9 7.2 7.6
2016-Dec-06 04:00S 54°06' W 089°18'0 0.0 330 / 61015.6 7.2 7.7
2016-Dec-06 03:00S 54°06' W 089°18'4 3.5 350 / 61015.2 7.0 7.7
2016-Dec-06 02:00S 54°06' W 089°12'4 3.5 040 / 31014.5 7.1 7.7
2016-Dec-06 01:00S 54°06' W 089°06'0 0.0 110 / 11013.9 7.7 7.7
2016-Dec-06 00:00S 54°06' W 089°06'4 3.5 160 / 41013.3 7.5 7.6
2016-Dec-05 23:00S 54°06' W 089°00'0 0.0 180 / 61012.9 7.5 7.6
2016-Dec-05 22:00S 54°06' W 089°00'4 3.5 190 / 81012.2 7.4 7.6
2016-Dec-05 21:00S 54°06' W 088°54'0 0.0 190 / 71011.3 7.4 7.5
2016-Dec-05 20:00S 54°06' W 088°54'0 0.0 200 / 111010.5 7.8 7.4
2016-Dec-05 19:00S 54°06' W 088°54'7 7.0 200 / 111009.6 8.1 7.2
2016-Dec-05 18:00S 54°00' W 088°48'0 0.0 200 / 101008.7 8.1 7.2
2016-Dec-05 17:00S 54°00' W 088°48'0 0.0 210 / 121007.7 7.9 7.1
2016-Dec-05 16:00S 54°00' W 088°48'0 0.0 220 / 111006.8 7.8 7.1
2016-Dec-05 15:00S 54°00' W 088°48'0 0.0 210 / 111006.1 7.6 7.1
2016-Dec-05 14:00S 54°00' W 088°48'0 0.0 210 / 131005.2 7.6 7.1
2016-Dec-05 13:00S 54°00' W 088°48'0 0.0 200 / 151004.2 6.9 7.1
2016-Dec-05 12:00S 54°00' W 088°48'0 0.0 200 / 151003.2 6.8 7.1
2016-Dec-05 11:00S 54°00' W 088°48'0 0.0 180 / 151002.1 6.5 7.0
2016-Dec-05 10:00S 54°00' W 088°48'4 3.5 190 / 181000.8 6.4 7.1
2016-Dec-05 09:00S 54°00' W 088°42'4 3.5 230 / 121000.4 7.0 7.1
2016-Dec-05 08:00S 54°00' W 088°48'7 7.1 270 / 101000.0 7.4 7.1
2016-Dec-05 07:00S 54°00' W 089°00'0 0.0 300 / 121000.0 7.9 7.1
2016-Dec-05 06:00S 54°00' W 089°00'4 3.5 320 / 131000.3 7.1 7.1
2016-Dec-05 05:00S 54°00' W 088°54'7 7.0 330 / 151000.7 7.0 7.1
2016-Dec-05 04:00S 54°06' W 088°48'0 0.0 330 / 191001.1 7.0 7.1
2016-Dec-05 03:00S 54°06' W 088°48'4 3.5 320 / 201001.4 7.1 7.1
2016-Dec-05 02:00S 54°06' W 088°42'4 3.5 320 / 211001.6 7.2 7.1
2016-Dec-05 01:00S 54°06' W 088°36'0 0.0 310 / 221001.8 7.2 7.1
2016-Dec-05 00:00S 54°06' W 088°36'7 7.0 310 / 241002.0 9.3 7.1
2016-Dec-04 23:00S 54°00' W 088°42'4 3.5 310 / 251002.3 7.6 7.1
2016-Dec-04 22:00S 54°00' W 088°48'4 3.5 310 / 221001.9 7.2 7.1
2016-Dec-04 21:00S 54°00' W 088°54'4 3.5 310 / 251002.1 7.2 7.1
2016-Dec-04 20:00S 54°00' W 088°48'0 0.0 300 / 261002.1 7.2 7.1
2016-Dec-04 19:00S 54°00' W 088°48'0 0.0 300 / 261002.2 7.4 7.1
2016-Dec-04 18:00S 54°00' W 088°48'0 0.0 300 / 261002.3 7.4 7.1
2016-Dec-04 17:00S 54°00' W 088°48'0 0.0 300 / 271002.4 7.4 7.1
2016-Dec-04 16:00S 54°00' W 088°48'4 3.5 300 / 281002.4 7.3 7.1
2016-Dec-04 15:00S 54°00' W 088°54'0 0.0 300 / 281002.4 7.6 7.1
2016-Dec-04 14:00S 54°00' W 088°54'0 0.0 300 / 281002.6 7.1 7.1
2016-Dec-04 13:00S 54°00' W 088°54'0 0.0 300 / 271002.8 6.9 7.0
2016-Dec-04 12:00S 54°00' W 088°54'4 3.5 300 / 291002.8 7.1 7.1
2016-Dec-04 11:00S 54°00' W 088°48'4 3.5 310 / 291003.0 7.2 7.1
2016-Dec-04 10:00S 54°00' W 088°54'0 0.0 310 / 291003.2 7.3 7.1
2016-Dec-04 09:00S 54°00' W 088°54'4 3.5 310 / 291003.1 7.2 7.1
2016-Dec-04 08:00S 54°00' W 088°48'4 3.5 310 / 281003.9 7.2 7.1
2016-Dec-04 07:00S 54°00' W 088°54'4 3.5 310 / 281004.6 7.3 7.1
2016-Dec-04 06:00S 54°00' W 089°00'4 3.5 300 / 271005.1 7.0 7.1
2016-Dec-04 05:00S 54°00' W 088°54'4 3.5 300 / 281005.2 6.9 7.1
2016-Dec-04 04:00S 54°00' W 088°48'0 0.0 310 / 261005.6 6.9 7.1
2016-Dec-04 03:00S 54°00' W 088°48'4 3.5 300 / 241006.0 9.5 7.2
2016-Dec-04 02:00S 54°00' W 088°54'0 0.0 300 / 241006.3 9.3 7.2
2016-Dec-04 01:00S 54°00' W 088°54'4 3.5 300 / 231006.4 6.8 7.2
2016-Dec-04 00:00S 54°00' W 088°48'4 3.5 300 / 221006.7 7.9 7.2
2016-Dec-03 23:00S 54°00' W 088°54'0 0.0 300 / 211007.2 8.5 7.2
2016-Dec-03 22:00S 54°00' W 088°54'0 0.0 290 / 201007.4 7.0 7.2
2016-Dec-03 21:00S 54°00' W 088°54'0 0.0 290 / 211007.6 7.8 7.2
2016-Dec-03 20:00S 54°00' W 088°54'0 0.0 280 / 191007.3 7.1 7.1
2016-Dec-03 19:00S 54°00' W 088°54'4 3.5 280 / 181007.2 6.9 7.1
2016-Dec-03 18:00S 54°00' W 088°48'0 0.0 270 / 191007.0 6.8 7.0
2016-Dec-03 17:00S 54°00' W 088°48'0 0.0 270 / 191006.8 6.5 7.0
2016-Dec-03 16:00S 54°00' W 088°48'4 3.5 270 / 191006.5 6.1 7.0
2016-Dec-03 15:00S 54°00' W 088°42'0 0.0 270 / 181006.1 5.8 7.0
2016-Dec-03 14:00S 54°00' W 088°42'0 0.0 260 / 201005.7 5.8 7.0
2016-Dec-03 13:00S 54°00' W 088°42'0 0.0 260 / 171005.4 5.5 7.0
2016-Dec-03 12:00S 54°00' W 088°42'0 0.0 250 / 181005.0 5.4 7.0
2016-Dec-03 11:00S 54°00' W 088°42'0 0.0 240 / 171004.6 5.5 6.9
2016-Dec-03 10:00S 54°00' W 088°42'0 0.0 230 / 191003.7 5.5 7.0
2016-Dec-03 09:00S 54°00' W 088°42'0 0.0 230 / 161003.5 5.2 7.0
2016-Dec-03 08:00S 54°00' W 088°42'4 3.5 230 / 181003.0 4.6 7.0
2016-Dec-03 07:00S 54°00' W 088°36'4 3.5 230 / 191002.5 4.8 7.0
2016-Dec-03 06:00S 54°00' W 088°42'4 3.5 220 / 161002.2 4.4 7.0
2016-Dec-03 05:00S 54°00' W 088°48'4 3.5 220 / 221001.6 5.4 7.1
2016-Dec-03 04:00S 54°00' W 088°54'0 0.0 220 / 191001.1 5.2 7.1
2016-Dec-03 03:00S 54°00' W 088°54'0 0.0 220 / 211000.1 4.9 7.1
2016-Dec-03 02:00S 54°00' W 088°54'0 0.0 240 / 22998.7 5.2 7.1
2016-Dec-03 01:00S 54°00' W 088°54'0 0.0 240 / 21998.3 5.1 7.1
2016-Dec-03 00:00S 54°00' W 088°54'0 0.0 230 / 23997.5 5.9 7.1
2016-Dec-02 23:00S 54°00' W 088°54'0 0.0 240 / 19997.0 5.7 7.2
2016-Dec-02 22:00S 54°00' W 088°54'4 3.5 230 / 20996.3 5.7 7.1
2016-Dec-02 21:00S 54°00' W 089°00'1212.2 240 / 20995.9 5.9 7.1
2016-Dec-02 20:00S 54°06' W 089°18'7 7.0 240 / 18995.4 5.7 7.0
2016-Dec-02 19:00S 54°06' W 089°30'0 0.0 230 / 21994.5 5.4 7.0
2016-Dec-02 18:00S 54°06' W 089°30'0 0.0 230 / 22993.7 5.3 7.0
2016-Dec-02 17:00S 54°06' W 089°30'0 0.0 230 / 23992.7 5.9 7.0
2016-Dec-02 16:00S 54°06' W 089°30'4 3.5 230 / 23991.8 6.0 7.0
2016-Dec-02 15:00S 54°06' W 089°36'0 0.0 230 / 22991.2 6.1 7.0
2016-Dec-02 14:00S 54°06' W 089°36'0 0.0 230 / 20990.3 6.8 7.0
2016-Dec-02 13:00S 54°06' W 089°36'0 0.0 240 / 20989.5 6.4 7.1
2016-Dec-02 12:00S 54°06' W 089°36'0 0.0 280 / 20988.9 6.7 7.1
2016-Dec-02 11:00S 54°06' W 089°36'0 0.0 300 / 19988.6 6.9 7.1
2016-Dec-02 10:00S 54°06' W 089°36'0 0.0 310 / 20988.3 7.0 7.1
2016-Dec-02 09:00S 54°06' W 089°36'6 6.0 320 / 19988.4 7.1 7.1
2016-Dec-02 08:00S 54°00' W 089°36'0 0.0 330 / 20988.8 7.0 7.0
2016-Dec-02 07:00S 54°00' W 089°36'6 6.0 330 / 19989.2 7.2 7.0
2016-Dec-02 06:00S 53°54' W 089°36'0 0.0 330 / 19989.5 7.1 7.0
2016-Dec-02 05:00S 53°54' W 089°36'0 0.0 330 / 20989.6 7.2 7.0
2016-Dec-02 04:00S 53°54' W 089°36'4 3.5 330 / 19989.6 7.3 7.0
2016-Dec-02 03:00S 53°54' W 089°30'6 6.0 320 / 21989.4 7.2 7.0
2016-Dec-02 02:00S 54°00' W 089°30'0 0.0 340 / 22989.0 7.3 7.0
2016-Dec-02 01:00S 54°00' W 089°30'7 7.0 360 / 24989.5 7.4 7.1
2016-Dec-02 00:00S 54°06' W 089°36'0 0.0 010 / 26990.1 7.2 7.2
2016-Dec-01 23:00S 54°06' W 089°36'6 6.0 010 / 26990.8 7.2 7.2
2016-Dec-01 22:00S 54°00' W 089°36'0 0.0 010 / 23992.3 7.3 7.2
2016-Dec-01 21:00S 54°00' W 089°36'0 0.0 010 / 22993.3 7.4 7.3
2016-Dec-01 20:00S 54°00' W 089°36'6 6.0 010 / 20994.1 7.2 7.3
2016-Dec-01 19:00S 54°06' W 089°36'0 0.0 360 / 19994.8 7.3 7.2
2016-Dec-01 18:00S 54°06' W 089°36'0 0.0 350 / 18995.2 7.2 7.2
2016-Dec-01 17:00S 54°06' W 089°36'4 3.5 340 / 16995.5 6.9 7.1
2016-Dec-01 16:00S 54°06' W 089°30'0 0.0 330 / 16995.5 7.1 7.1
2016-Dec-01 15:00S 54°06' W 089°30'0 0.0 310 / 15995.4 6.9 7.0
2016-Dec-01 14:00S 54°06' W 089°30'6 6.0 300 / 15995.3 7.0 7.0
2016-Dec-01 13:00S 54°12' W 089°30'4 3.5 290 / 13995.1 7.0 7.0
2016-Dec-01 12:00S 54°12' W 089°24'0 0.0 280 / 14994.6 7.0 6.9
2016-Dec-01 11:00S 54°12' W 089°24'0 0.0 270 / 15994.1 6.8 6.9
2016-Dec-01 10:00S 54°12' W 089°24'0 0.0 290 / 14993.6 6.8 7.1
2016-Dec-01 09:00S 54°12' W 089°24'0 0.0 290 / 15993.3 6.9 7.1
2016-Dec-01 08:00S 54°12' W 089°24'0 0.0 310 / 12993.2 6.6 7.1
2016-Dec-01 07:00S 54°12' W 089°24'0 0.0 320 / 11993.1 6.4 7.0
2016-Dec-01 06:00S 54°12' W 089°24'0 0.0 320 / 7993.0 6.6 7.1
2016-Dec-01 05:00S 54°12' W 089°24'0 0.0 320 / 4992.7 6.7 7.1
2016-Dec-01 04:00S 54°12' W 089°24'0 0.0 280 / 4992.4 6.8 7.1
2016-Dec-01 03:00S 54°12' W 089°24'0 0.0 230 / 4991.7 6.9 7.2
2016-Dec-01 02:00S 54°12' W 089°24'6 6.0 200 / 3991.1 7.2 7.4
2016-Dec-01 01:00S 54°18' W 089°24'4 3.5 170 / 3990.8 7.4 7.4
2016-Dec-01 00:00S 54°18' W 089°18'6 6.0 150 / 5990.5 7.4 7.4
2016-Nov-30 23:00S 54°24' W 089°18'0 0.0 140 / 5990.6 7.4 7.3
2016-Nov-30 22:00S 54°24' W 089°18'0 0.0 110 / 6990.3 7.0 7.1
2016-Nov-30 21:00S 54°24' W 089°18'0 0.0 100 / 6990.5 6.9 6.9
2016-Nov-30 20:00S 54°24' W 089°18'3 3.5 090 / 8990.9 6.9 7.0
2016-Nov-30 19:00S 54°24' W 089°12'0 0.0 090 / 7991.3 7.0 7.1
2016-Nov-30 18:00S 54°24' W 089°12'0 0.0 060 / 6992.1 6.9 6.9
2016-Nov-30 17:00S 54°24' W 089°12'0 0.0 050 / 6992.9 6.7 6.8
2016-Nov-30 16:00S 54°24' W 089°12'7 6.9 040 / 5993.5 6.6 6.8
2016-Nov-30 15:00S 54°30' W 089°06'0 0.0 020 / 5994.4 6.6 6.7
2016-Nov-30 14:00S 54°30' W 089°06'0 0.0 995.1 6.5 6.7
2016-Nov-30 13:00S 54°30' W 089°06'3 3.5 340 / 8995.8 6.5 6.7
2016-Nov-30 12:00S 54°30' W 089°00'6 6.0 320 / 9996.3 6.5 6.7
2016-Nov-30 11:00S 54°24' W 089°00'0 0.0 310 / 10996.7 6.4 6.7
2016-Nov-30 10:00S 54°24' W 089°00'0 0.0 310 / 11996.9 6.4 6.7
2016-Nov-30 09:00S 54°24' W 089°00'3 3.5 300 / 14997.1 6.5 6.7
2016-Nov-30 08:00S 54°24' W 089°06'3 3.5 300 / 17997.2 8.2 6.7
2016-Nov-30 07:00S 54°24' W 089°12'7 7.0 300 / 19997.2 9.5 6.7
2016-Nov-30 06:00S 54°24' W 089°24'7 7.0 290 / 20997.2 9.0 6.8
2016-Nov-30 05:00S 54°24' W 089°36'3 3.5 290 / 23997.1 9.0 6.8
2016-Nov-30 04:00S 54°24' W 089°42'7 7.0 290 / 23997.2 9.0 6.8
2016-Nov-30 03:00S 54°24' W 089°54'3 3.5 290 / 24996.7 8.5 6.8
2016-Nov-30 02:00S 54°24' W 090°00'3 3.5 300 / 24996.4 8.7 6.8
2016-Nov-30 01:00S 54°24' W 090°06'3 3.5 290 / 25996.2 7.5 6.8
2016-Nov-30 00:00S 54°24' W 090°12'3 3.5 300 / 27995.7 8.3 6.8
2016-Nov-29 23:00S 54°24' W 090°18'3 3.5 290 / 22995.9 7.9 6.8
2016-Nov-29 22:00S 54°24' W 090°24'7 6.9 290 / 26994.8 7.2 6.8
2016-Nov-29 21:00S 54°30' W 090°18'6 6.0 290 / 27994.2 7.0 6.8
2016-Nov-29 20:00S 54°36' W 090°18'3 3.5 290 / 28993.4 7.2 6.8
2016-Nov-29 19:00S 54°36' W 090°12'6 6.0 280 / 29992.4 7.1 6.8
2016-Nov-29 18:00S 54°42' W 090°12'3 3.5 280 / 30991.1 7.0 6.7
2016-Nov-29 17:00S 54°42' W 090°06'6 6.0 280 / 29990.1 6.9 6.7
2016-Nov-29 16:00S 54°48' W 090°06'7 6.9 290 / 33988.7 7.2 6.7
2016-Nov-29 15:00S 54°54' W 090°00'16 2.3 290 / 33987.7 7.3 6.7
2016-Nov-29 08:00S 55°06' W 089°42'3 3.4 310 / 42984.9 7.4 6.6
2016-Nov-29 07:00S 55°06' W 089°36'3 3.4 300 / 42984.8 7.4 6.6
2016-Nov-29 06:00S 55°06' W 089°30'0 0.0 300 / 46984.1 7.6 6.5
2016-Nov-29 05:00S 55°06' W 089°30'1212.5 300 / 43984.2 7.6 6.5
2016-Nov-29 04:00S 54°54' W 089°36'6 6.0 310 / 43984.1 7.6 6.7
2016-Nov-29 03:00S 54°48' W 089°36'1212.0 310 / 40984.0 7.2 6.8
2016-Nov-29 02:00S 54°36' W 089°36'0 0.0 300 / 40982.9 7.3 6.8
2016-Nov-29 01:00S 54°36' W 089°36'7 6.9 320 / 39982.1 8.3 6.8
2016-Nov-29 00:00S 54°30' W 089°30'7 6.9 350 / 37983.6 8.5 6.8
2016-Nov-28 23:00S 54°24' W 089°24'7 7.0 350 / 34986.2 8.4 6.8
2016-Nov-28 22:00S 54°24' W 089°12'0 0.0 350 / 35988.8 8.6 6.8
2016-Nov-28 21:00S 54°24' W 089°12'0 0.0 350 / 33990.8 8.2 6.8
2016-Nov-28 20:00S 54°24' W 089°12'3 3.5 360 / 28992.7 7.7 6.8
2016-Nov-28 19:00S 54°24' W 089°06'7 7.0 994.5 7.3 6.8
2016-Nov-28 18:00S 54°24' W 089°18'6 6.0 010 / 20996.6 7.1 6.8
2016-Nov-28 17:00S 54°18' W 089°18'7 6.9 360 / 18998.6 7.7 6.8
2016-Nov-28 16:00S 54°12' W 089°24'9 9.2 350 / 201000.2 8.8 6.8
2016-Nov-28 15:00S 54°06' W 089°36'0 0.0 340 / 221001.5 7.5 6.8
2016-Nov-28 14:00S 54°06' W 089°36'0 0.0 340 / 211002.1 7.2 6.8
2016-Nov-28 13:00S 54°06' W 089°36'0 0.0 340 / 201002.7 7.2 6.8
2016-Nov-28 12:00S 54°06' W 089°36'6 6.0 350 / 211003.5 7.1 6.8
2016-Nov-28 11:00S 54°00' W 089°36'1312.5 1004.6 6.9 6.8
2016-Nov-28 10:00S 53°48' W 089°30'7 7.0 350 / 191005.7 6.9 6.8
2016-Nov-28 09:00S 53°42' W 089°24'1312.5 350 / 181006.8 7.0 6.8
2016-Nov-28 08:00S 53°30' W 089°18'7 7.0 350 / 171007.6 7.0 6.8
2016-Nov-28 07:00S 53°24' W 089°12'1312.5 330 / 161008.9 7.2 6.9
2016-Nov-28 06:00S 53°12' W 089°06'1312.5 320 / 161009.7 7.3 6.9
2016-Nov-28 05:00S 53°00' W 089°00'   320 / 171010.4 7.4 7.0
Track history (hours):
 
Tides and Currents Weather Stations Pressure Air Temp Water Temp Dewpoint Dewpoint Depression Visibility Wind Speed Wind Dir Waves Ship Positions

Oceanographic research ship Nathaniel B. Palmer (USA)

Contact: Ethan Norris, ethan.norris.contractor@usap.gov

Detailed information on ship capabilities available from University of Delaware's Ocean Information Center and ARCUS's ALIAS (Arctic Logistics Information and Support) project.

Owner: OFFSHORE SERVICE VESSELS, GALLIANO, LA. More information available from US FCC via Universal Licensing System and Coast Guard Vessel Documentation Center.

Last reported at 2016-Dec-08 05:00 UTC. Time now 2016-Dec-08 06:02 UTC.
Position S 50°06' W 089°36'.

Type: Other ship. MMSI: 366610000.

Wind from 290 at 27 knots

Barometer 1012.3 mb
Air temperature 9.4 ° C
Water temperature 8.9 ° C

Date/timePositionNaut miles runAvg speedWind from/ knotsBaromVisibWave heightAir tempDewpointWater temp
2016-Dec-08 05:00S 50°06' W 089°36'0 0.0 290 / 271012.3 9.4 8.9
2016-Dec-08 04:00S 50°06' W 089°36'0 0.0 290 / 281011.9 9.4 8.9
2016-Dec-08 03:00S 50°06' W 089°36'7 7.1 290 / 261011.3 9.4 8.9
2016-Dec-08 02:00S 50°12' W 089°30'0 0.0 290 / 241010.7 9.5 8.9
2016-Dec-08 01:00S 50°12' W 089°30'7 7.1 300 / 211011.2 9.5 8.9
2016-Dec-08 00:00S 50°06' W 089°36'4 3.8 300 / 211011.3 9.6 8.9
2016-Dec-07 23:00S 50°06' W 089°42'0 0.0 300 / 211011.2 9.7 8.9
2016-Dec-07 22:00S 50°06' W 089°42'6 6.0 290 / 221010.1 9.6 8.9
2016-Dec-07 21:00S 50°12' W 089°42'6 6.0 300 / 221009.7 9.7 8.9
2016-Dec-07 20:00S 50°18' W 089°42'6 6.0 300 / 231009.0 9.6 8.8
2016-Dec-07 19:00S 50°24' W 089°42'6 6.0 320 / 291008.2 9.8 8.8
2016-Dec-07 18:00S 50°30' W 089°42'6 6.0 330 / 311008.2 9.8 8.6
2016-Dec-07 17:00S 50°36' W 089°42'6 6.0 340 / 331008.5 9.6 8.6
2016-Dec-07 16:00S 50°42' W 089°42'1212.0 350 / 341009.0 9.3 8.6
2016-Dec-07 15:00S 50°54' W 089°42'6 6.0 360 / 351009.8 9.0 8.5
2016-Dec-07 14:00S 51°00' W 089°42'6 6.0 360 / 351010.5 8.5 8.4
2016-Dec-07 13:00S 51°06' W 089°42'1312.6 1010.9 8.3 8.0
2016-Dec-07 12:00S 51°18' W 089°36'6 6.0 360 / 351011.8 8.3 7.9
2016-Dec-07 11:00S 51°24' W 089°36'6 6.0 360 / 331012.5 8.3 7.9
2016-Dec-07 10:00S 51°30' W 089°36'1212.0 360 / 311013.1 8.2 7.9
2016-Dec-07 09:00S 51°42' W 089°36'6 6.0 350 / 301014.0 8.3 7.8
2016-Dec-07 08:00S 51°48' W 089°36'1212.0 350 / 301014.8 8.2 7.9
2016-Dec-07 07:00S 52°00' W 089°36'1212.0 350 / 311015.4 8.1 7.9
2016-Dec-07 06:00S 52°12' W 089°36'6 6.0 350 / 301016.2 8.1 7.9
2016-Dec-07 05:00S 52°18' W 089°36'1212.0 350 / 281016.7 8.0 7.9
2016-Dec-07 04:00S 52°30' W 089°36'6 6.0 350 / 241017.4 8.0 7.9
2016-Dec-07 03:00S 52°36' W 089°36'1212.0 340 / 221017.6 8.0 7.8
2016-Dec-07 02:00S 52°48' W 089°36'1212.0 340 / 191018.0 8.0 7.8
2016-Dec-07 01:00S 53°00' W 089°36'6 6.0 340 / 171018.3 8.1 7.9
2016-Dec-07 00:00S 53°06' W 089°36'1212.0 340 / 151018.4 8.1 7.8
2016-Dec-06 23:00S 53°18' W 089°36'6 6.0 340 / 131019.1 7.9 7.6
2016-Dec-06 22:00S 53°24' W 089°36'1212.0 320 / 131019.4 7.6 7.5
2016-Dec-06 21:00S 53°36' W 089°36'1212.0 310 / 161019.3 7.5 7.5
2016-Dec-06 20:00S 53°48' W 089°36'6 6.0 300 / 141019.3 7.5 7.5
2016-Dec-06 19:00S 53°54' W 089°36'1212.0 300 / 161018.8 7.4 7.5
2016-Dec-06 18:00S 54°06' W 089°36'0 0.0 290 / 121019.1 7.5 7.6
2016-Dec-06 17:00S 54°06' W 089°36'4 3.5 290 / 121019.2 7.3 7.4
2016-Dec-06 16:00S 54°06' W 089°30'0 0.0 270 / 121019.1 7.3 7.4
2016-Dec-06 15:00S 54°06' W 089°30'0 0.0 270 / 131018.9 7.4 7.3
2016-Dec-06 14:00S 54°06' W 089°30'0 0.0 270 / 151018.7 7.3 7.3
2016-Dec-06 13:00S 54°06' W 089°30'0 0.0 260 / 131018.4 7.3 7.4
2016-Dec-06 12:00S 54°06' W 089°30'0 0.0 280 / 141018.1 7.7 7.3
2016-Dec-06 11:00S 54°06' W 089°30'0 0.0 270 / 121017.7 7.4 7.4
2016-Dec-06 10:00S 54°06' W 089°30'0 0.0 280 / 121017.4 7.3 7.4
2016-Dec-06 09:00S 54°06' W 089°30'0 0.0 280 / 121017.0 7.7 7.4
2016-Dec-06 08:00S 54°06' W 089°30'0 0.0 290 / 101016.6 8.4 7.5
2016-Dec-06 07:00S 54°06' W 089°30'0 0.0 280 / 111016.3 7.5 7.5
2016-Dec-06 06:00S 54°06' W 089°30'4 3.5 300 / 121016.1 7.4 7.6
2016-Dec-06 05:00S 54°06' W 089°24'4 3.5 340 / 81015.9 7.2 7.6
2016-Dec-06 04:00S 54°06' W 089°18'0 0.0 330 / 61015.6 7.2 7.7
2016-Dec-06 03:00S 54°06' W 089°18'4 3.5 350 / 61015.2 7.0 7.7
2016-Dec-06 02:00S 54°06' W 089°12'4 3.5 040 / 31014.5 7.1 7.7
2016-Dec-06 01:00S 54°06' W 089°06'0 0.0 110 / 11013.9 7.7 7.7
2016-Dec-06 00:00S 54°06' W 089°06'4 3.5 160 / 41013.3 7.5 7.6
2016-Dec-05 23:00S 54°06' W 089°00'0 0.0 180 / 61012.9 7.5 7.6
2016-Dec-05 22:00S 54°06' W 089°00'4 3.5 190 / 81012.2 7.4 7.6
2016-Dec-05 21:00S 54°06' W 088°54'0 0.0 190 / 71011.3 7.4 7.5
2016-Dec-05 20:00S 54°06' W 088°54'0 0.0 200 / 111010.5 7.8 7.4
2016-Dec-05 19:00S 54°06' W 088°54'7 7.0 200 / 111009.6 8.1 7.2
2016-Dec-05 18:00S 54°00' W 088°48'0 0.0 200 / 101008.7 8.1 7.2
2016-Dec-05 17:00S 54°00' W 088°48'0 0.0 210 / 121007.7 7.9 7.1
2016-Dec-05 16:00S 54°00' W 088°48'0 0.0 220 / 111006.8 7.8 7.1
2016-Dec-05 15:00S 54°00' W 088°48'0 0.0 210 / 111006.1 7.6 7.1
2016-Dec-05 14:00S 54°00' W 088°48'0 0.0 210 / 131005.2 7.6 7.1
2016-Dec-05 13:00S 54°00' W 088°48'0 0.0 200 / 151004.2 6.9 7.1
2016-Dec-05 12:00S 54°00' W 088°48'0 0.0 200 / 151003.2 6.8 7.1
2016-Dec-05 11:00S 54°00' W 088°48'0 0.0 180 / 151002.1 6.5 7.0
2016-Dec-05 10:00S 54°00' W 088°48'4 3.5 190 / 181000.8 6.4 7.1
2016-Dec-05 09:00S 54°00' W 088°42'4 3.5 230 / 121000.4 7.0 7.1
2016-Dec-05 08:00S 54°00' W 088°48'7 7.1 270 / 101000.0 7.4 7.1
2016-Dec-05 07:00S 54°00' W 089°00'0 0.0 300 / 121000.0 7.9 7.1
2016-Dec-05 06:00S 54°00' W 089°00'4 3.5 320 / 131000.3 7.1 7.1
2016-Dec-05 05:00S 54°00' W 088°54'7 7.0 330 / 151000.7 7.0 7.1
2016-Dec-05 04:00S 54°06' W 088°48'0 0.0 330 / 191001.1 7.0 7.1
2016-Dec-05 03:00S 54°06' W 088°48'4 3.5 320 / 201001.4 7.1 7.1
2016-Dec-05 02:00S 54°06' W 088°42'4 3.5 320 / 211001.6 7.2 7.1
2016-Dec-05 01:00S 54°06' W 088°36'0 0.0 310 / 221001.8 7.2 7.1
2016-Dec-05 00:00S 54°06' W 088°36'7 7.0 310 / 241002.0 9.3 7.1
2016-Dec-04 23:00S 54°00' W 088°42'4 3.5 310 / 251002.3 7.6 7.1
2016-Dec-04 22:00S 54°00' W 088°48'4 3.5 310 / 221001.9 7.2 7.1
2016-Dec-04 21:00S 54°00' W 088°54'4 3.5 310 / 251002.1 7.2 7.1
2016-Dec-04 20:00S 54°00' W 088°48'0 0.0 300 / 261002.1 7.2 7.1
2016-Dec-04 19:00S 54°00' W 088°48'0 0.0 300 / 261002.2 7.4 7.1
2016-Dec-04 18:00S 54°00' W 088°48'0 0.0 300 / 261002.3 7.4 7.1
2016-Dec-04 17:00S 54°00' W 088°48'0 0.0 300 / 271002.4 7.4 7.1
2016-Dec-04 16:00S 54°00' W 088°48'4 3.5 300 / 281002.4 7.3 7.1
2016-Dec-04 15:00S 54°00' W 088°54'0 0.0 300 / 281002.4 7.6 7.1
2016-Dec-04 14:00S 54°00' W 088°54'0 0.0 300 / 281002.6 7.1 7.1
2016-Dec-04 13:00S 54°00' W 088°54'0 0.0 300 / 271002.8 6.9 7.0
2016-Dec-04 12:00S 54°00' W 088°54'4 3.5 300 / 291002.8 7.1 7.1
2016-Dec-04 11:00S 54°00' W 088°48'4 3.5 310 / 291003.0 7.2 7.1
2016-Dec-04 10:00S 54°00' W 088°54'0 0.0 310 / 291003.2 7.3 7.1
2016-Dec-04 09:00S 54°00' W 088°54'4 3.5 310 / 291003.1 7.2 7.1
2016-Dec-04 08:00S 54°00' W 088°48'4 3.5 310 / 281003.9 7.2 7.1
2016-Dec-04 07:00S 54°00' W 088°54'4 3.5 310 / 281004.6 7.3 7.1
2016-Dec-04 06:00S 54°00' W 089°00'4 3.5 300 / 271005.1 7.0 7.1
2016-Dec-04 05:00S 54°00' W 088°54'4 3.5 300 / 281005.2 6.9 7.1
2016-Dec-04 04:00S 54°00' W 088°48'0 0.0 310 / 261005.6 6.9 7.1
2016-Dec-04 03:00S 54°00' W 088°48'4 3.5 300 / 241006.0 9.5 7.2
2016-Dec-04 02:00S 54°00' W 088°54'0 0.0 300 / 241006.3 9.3 7.2
2016-Dec-04 01:00S 54°00' W 088°54'4 3.5 300 / 231006.4 6.8 7.2
2016-Dec-04 00:00S 54°00' W 088°48'4 3.5 300 / 221006.7 7.9 7.2
2016-Dec-03 23:00S 54°00' W 088°54'0 0.0 300 / 211007.2 8.5 7.2
2016-Dec-03 22:00S 54°00' W 088°54'0 0.0 290 / 201007.4 7.0 7.2
2016-Dec-03 21:00S 54°00' W 088°54'0 0.0 290 / 211007.6 7.8 7.2
2016-Dec-03 20:00S 54°00' W 088°54'0 0.0 280 / 191007.3 7.1 7.1
2016-Dec-03 19:00S 54°00' W 088°54'4 3.5 280 / 181007.2 6.9 7.1
2016-Dec-03 18:00S 54°00' W 088°48'0 0.0 270 / 191007.0 6.8 7.0
2016-Dec-03 17:00S 54°00' W 088°48'0 0.0 270 / 191006.8 6.5 7.0
2016-Dec-03 16:00S 54°00' W 088°48'4 3.5 270 / 191006.5 6.1 7.0
2016-Dec-03 15:00S 54°00' W 088°42'0 0.0 270 / 181006.1 5.8 7.0
2016-Dec-03 14:00S 54°00' W 088°42'0 0.0 260 / 201005.7 5.8 7.0
2016-Dec-03 13:00S 54°00' W 088°42'0 0.0 260 / 171005.4 5.5 7.0
2016-Dec-03 12:00S 54°00' W 088°42'0 0.0 250 / 181005.0 5.4 7.0
2016-Dec-03 11:00S 54°00' W 088°42'0 0.0 240 / 171004.6 5.5 6.9
2016-Dec-03 10:00S 54°00' W 088°42'0 0.0 230 / 191003.7 5.5 7.0
2016-Dec-03 09:00S 54°00' W 088°42'0 0.0 230 / 161003.5 5.2 7.0
2016-Dec-03 08:00S 54°00' W 088°42'4 3.5 230 / 181003.0 4.6 7.0
2016-Dec-03 07:00S 54°00' W 088°36'4 3.5 230 / 191002.5 4.8 7.0
2016-Dec-03 06:00S 54°00' W 088°42'4 3.5 220 / 161002.2 4.4 7.0
2016-Dec-03 05:00S 54°00' W 088°48'4 3.5 220 / 221001.6 5.4 7.1
2016-Dec-03 04:00S 54°00' W 088°54'0 0.0 220 / 191001.1 5.2 7.1
2016-Dec-03 03:00S 54°00' W 088°54'0 0.0 220 / 211000.1 4.9 7.1
2016-Dec-03 02:00S 54°00' W 088°54'0 0.0 240 / 22998.7 5.2 7.1
2016-Dec-03 01:00S 54°00' W 088°54'0 0.0 240 / 21998.3 5.1 7.1
2016-Dec-03 00:00S 54°00' W 088°54'0 0.0 230 / 23997.5 5.9 7.1
2016-Dec-02 23:00S 54°00' W 088°54'0 0.0 240 / 19997.0 5.7 7.2
2016-Dec-02 22:00S 54°00' W 088°54'4 3.5 230 / 20996.3 5.7 7.1
2016-Dec-02 21:00S 54°00' W 089°00'1212.2 240 / 20995.9 5.9 7.1
2016-Dec-02 20:00S 54°06' W 089°18'7 7.0 240 / 18995.4 5.7 7.0
2016-Dec-02 19:00S 54°06' W 089°30'0 0.0 230 / 21994.5 5.4 7.0
2016-Dec-02 18:00S 54°06' W 089°30'0 0.0 230 / 22993.7 5.3 7.0
2016-Dec-02 17:00S 54°06' W 089°30'0 0.0 230 / 23992.7 5.9 7.0
2016-Dec-02 16:00S 54°06' W 089°30'4 3.5 230 / 23991.8 6.0 7.0
2016-Dec-02 15:00S 54°06' W 089°36'0 0.0 230 / 22991.2 6.1 7.0
2016-Dec-02 14:00S 54°06' W 089°36'0 0.0 230 / 20990.3 6.8 7.0
2016-Dec-02 13:00S 54°06' W 089°36'0 0.0 240 / 20989.5 6.4 7.1
2016-Dec-02 12:00S 54°06' W 089°36'0 0.0 280 / 20988.9 6.7 7.1
2016-Dec-02 11:00S 54°06' W 089°36'0 0.0 300 / 19988.6 6.9 7.1
2016-Dec-02 10:00S 54°06' W 089°36'0 0.0 310 / 20988.3 7.0 7.1
2016-Dec-02 09:00S 54°06' W 089°36'6 6.0 320 / 19988.4 7.1 7.1
2016-Dec-02 08:00S 54°00' W 089°36'0 0.0 330 / 20988.8 7.0 7.0
2016-Dec-02 07:00S 54°00' W 089°36'6 6.0 330 / 19989.2 7.2 7.0
2016-Dec-02 06:00S 53°54' W 089°36'0 0.0 330 / 19989.5 7.1 7.0
2016-Dec-02 05:00S 53°54' W 089°36'0 0.0 330 / 20989.6 7.2 7.0
2016-Dec-02 04:00S 53°54' W 089°36'4 3.5 330 / 19989.6 7.3 7.0
2016-Dec-02 03:00S 53°54' W 089°30'6 6.0 320 / 21989.4 7.2 7.0
2016-Dec-02 02:00S 54°00' W 089°30'0 0.0 340 / 22989.0 7.3 7.0
2016-Dec-02 01:00S 54°00' W 089°30'7 7.0 360 / 24989.5 7.4 7.1
2016-Dec-02 00:00S 54°06' W 089°36'0 0.0 010 / 26990.1 7.2 7.2
2016-Dec-01 23:00S 54°06' W 089°36'6 6.0 010 / 26990.8 7.2 7.2
2016-Dec-01 22:00S 54°00' W 089°36'0 0.0 010 / 23992.3 7.3 7.2
2016-Dec-01 21:00S 54°00' W 089°36'0 0.0 010 / 22993.3 7.4 7.3
2016-Dec-01 20:00S 54°00' W 089°36'6 6.0 010 / 20994.1 7.2 7.3
2016-Dec-01 19:00S 54°06' W 089°36'0 0.0 360 / 19994.8 7.3 7.2
2016-Dec-01 18:00S 54°06' W 089°36'0 0.0 350 / 18995.2 7.2 7.2
2016-Dec-01 17:00S 54°06' W 089°36'4 3.5 340 / 16995.5 6.9 7.1
2016-Dec-01 16:00S 54°06' W 089°30'0 0.0 330 / 16995.5 7.1 7.1
2016-Dec-01 15:00S 54°06' W 089°30'0 0.0 310 / 15995.4 6.9 7.0
2016-Dec-01 14:00S 54°06' W 089°30'6 6.0 300 / 15995.3 7.0 7.0
2016-Dec-01 13:00S 54°12' W 089°30'4 3.5 290 / 13995.1 7.0 7.0
2016-Dec-01 12:00S 54°12' W 089°24'0 0.0 280 / 14994.6 7.0 6.9
2016-Dec-01 11:00S 54°12' W 089°24'0 0.0 270 / 15994.1 6.8 6.9
2016-Dec-01 10:00S 54°12' W 089°24'0 0.0 290 / 14993.6 6.8 7.1
2016-Dec-01 09:00S 54°12' W 089°24'0 0.0 290 / 15993.3 6.9 7.1
2016-Dec-01 08:00S 54°12' W 089°24'0 0.0 310 / 12993.2 6.6 7.1
2016-Dec-01 07:00S 54°12' W 089°24'0 0.0 320 / 11993.1 6.4 7.0
2016-Dec-01 06:00S 54°12' W 089°24'0 0.0 320 / 7993.0 6.6 7.1
2016-Dec-01 05:00S 54°12' W 089°24'0 0.0 320 / 4992.7 6.7 7.1
2016-Dec-01 04:00S 54°12' W 089°24'0 0.0 280 / 4992.4 6.8 7.1
2016-Dec-01 03:00S 54°12' W 089°24'0 0.0 230 / 4991.7 6.9 7.2
2016-Dec-01 02:00S 54°12' W 089°24'6 6.0 200 / 3991.1 7.2 7.4
2016-Dec-01 01:00S 54°18' W 089°24'4 3.5 170 / 3990.8 7.4 7.4
2016-Dec-01 00:00S 54°18' W 089°18'6 6.0 150 / 5990.5 7.4 7.4
2016-Nov-30 23:00S 54°24' W 089°18'0 0.0 140 / 5990.6 7.4 7.3
2016-Nov-30 22:00S 54°24' W 089°18'0 0.0 110 / 6990.3 7.0 7.1
2016-Nov-30 21:00S 54°24' W 089°18'0 0.0 100 / 6990.5 6.9 6.9
2016-Nov-30 20:00S 54°24' W 089°18'3 3.5 090 / 8990.9 6.9 7.0
2016-Nov-30 19:00S 54°24' W 089°12'0 0.0 090 / 7991.3 7.0 7.1
2016-Nov-30 18:00S 54°24' W 089°12'0 0.0 060 / 6992.1 6.9 6.9
2016-Nov-30 17:00S 54°24' W 089°12'0 0.0 050 / 6992.9 6.7 6.8
2016-Nov-30 16:00S 54°24' W 089°12'7 6.9 040 / 5993.5 6.6 6.8
2016-Nov-30 15:00S 54°30' W 089°06'0 0.0 020 / 5994.4 6.6 6.7
2016-Nov-30 14:00S 54°30' W 089°06'0 0.0 995.1 6.5 6.7
2016-Nov-30 13:00S 54°30' W 089°06'3 3.5 340 / 8995.8 6.5 6.7
2016-Nov-30 12:00S 54°30' W 089°00'6 6.0 320 / 9996.3 6.5 6.7
2016-Nov-30 11:00S 54°24' W 089°00'0 0.0 310 / 10996.7 6.4 6.7
2016-Nov-30 10:00S 54°24' W 089°00'0 0.0 310 / 11996.9 6.4 6.7
2016-Nov-30 09:00S 54°24' W 089°00'3 3.5 300 / 14997.1 6.5 6.7
2016-Nov-30 08:00S 54°24' W 089°06'3 3.5 300 / 17997.2 8.2 6.7
2016-Nov-30 07:00S 54°24' W 089°12'7 7.0 300 / 19997.2 9.5 6.7
2016-Nov-30 06:00S 54°24' W 089°24'7 7.0 290 / 20997.2 9.0 6.8
2016-Nov-30 05:00S 54°24' W 089°36'3 3.5 290 / 23997.1 9.0 6.8
2016-Nov-30 04:00S 54°24' W 089°42'7 7.0 290 / 23997.2 9.0 6.8
2016-Nov-30 03:00S 54°24' W 089°54'3 3.5 290 / 24996.7 8.5 6.8
2016-Nov-30 02:00S 54°24' W 090°00'3 3.5 300 / 24996.4 8.7 6.8
2016-Nov-30 01:00S 54°24' W 090°06'3 3.5 290 / 25996.2 7.5 6.8
2016-Nov-30 00:00S 54°24' W 090°12'3 3.5 300 / 27995.7 8.3 6.8
2016-Nov-29 23:00S 54°24' W 090°18'3 3.5 290 / 22995.9 7.9 6.8
2016-Nov-29 22:00S 54°24' W 090°24'7 6.9 290 / 26994.8 7.2 6.8
2016-Nov-29 21:00S 54°30' W 090°18'6 6.0 290 / 27994.2 7.0 6.8
2016-Nov-29 20:00S 54°36' W 090°18'3 3.5 290 / 28993.4 7.2 6.8
2016-Nov-29 19:00S 54°36' W 090°12'6 6.0 280 / 29992.4 7.1 6.8
2016-Nov-29 18:00S 54°42' W 090°12'3 3.5 280 / 30991.1 7.0 6.7
2016-Nov-29 17:00S 54°42' W 090°06'6 6.0 280 / 29990.1 6.9 6.7
2016-Nov-29 16:00S 54°48' W 090°06'7 6.9 290 / 33988.7 7.2 6.7
2016-Nov-29 15:00S 54°54' W 090°00'16 2.3 290 / 33987.7 7.3 6.7
2016-Nov-29 08:00S 55°06' W 089°42'3 3.4 310 / 42984.9 7.4 6.6
2016-Nov-29 07:00S 55°06' W 089°36'3 3.4 300 / 42984.8 7.4 6.6
2016-Nov-29 06:00S 55°06' W 089°30'0 0.0 300 / 46984.1 7.6 6.5
2016-Nov-29 05:00S 55°06' W 089°30'1212.5 300 / 43984.2 7.6 6.5
2016-Nov-29 04:00S 54°54' W 089°36'6 6.0 310 / 43984.1 7.6 6.7
2016-Nov-29 03:00S 54°48' W 089°36'1212.0 310 / 40984.0 7.2 6.8
2016-Nov-29 02:00S 54°36' W 089°36'0 0.0 300 / 40982.9 7.3 6.8
2016-Nov-29 01:00S 54°36' W 089°36'7 6.9 320 / 39982.1 8.3 6.8
2016-Nov-29 00:00S 54°30' W 089°30'7 6.9 350 / 37983.6 8.5 6.8
2016-Nov-28 23:00S 54°24' W 089°24'7 7.0 350 / 34986.2 8.4 6.8
2016-Nov-28 22:00S 54°24' W 089°12'0 0.0 350 / 35988.8 8.6 6.8
2016-Nov-28 21:00S 54°24' W 089°12'0 0.0 350 / 33990.8 8.2 6.8
2016-Nov-28 20:00S 54°24' W 089°12'3 3.5 360 / 28992.7 7.7 6.8
2016-Nov-28 19:00S 54°24' W 089°06'7 7.0 994.5 7.3 6.8
2016-Nov-28 18:00S 54°24' W 089°18'6 6.0 010 / 20996.6 7.1 6.8
2016-Nov-28 17:00S 54°18' W 089°18'7 6.9 360 / 18998.6 7.7 6.8
2016-Nov-28 16:00S 54°12' W 089°24'9 9.2 350 / 201000.2 8.8 6.8
2016-Nov-28 15:00S 54°06' W 089°36'0 0.0 340 / 221001.5 7.5 6.8
2016-Nov-28 14:00S 54°06' W 089°36'0 0.0 340 / 211002.1 7.2 6.8
2016-Nov-28 13:00S 54°06' W 089°36'0 0.0 340 / 201002.7 7.2 6.8
2016-Nov-28 12:00S 54°06' W 089°36'6 6.0 350 / 211003.5 7.1 6.8
2016-Nov-28 11:00S 54°00' W 089°36'1312.5 1004.6 6.9 6.8
2016-Nov-28 10:00S 53°48' W 089°30'7 7.0 350 / 191005.7 6.9 6.8
2016-Nov-28 09:00S 53°42' W 089°24'1312.5 350 / 181006.8 7.0 6.8
2016-Nov-28 08:00S 53°30' W 089°18'7 7.0 350 / 171007.6 7.0 6.8
2016-Nov-28 07:00S 53°24' W 089°12'1312.5 330 / 161008.9 7.2 6.9
2016-Nov-28 06:00S 53°12' W 089°06'1312.5 320 / 161009.7 7.3 6.9
2016-Nov-28 05:00S 53°00' W 089°00'   320 / 171010.4 7.4 7.0

Dump ship's entire track history